createdAt,value
2022-10-14T00:02:02.352Z,86.67
2022-10-14T00:04:44.142Z,86.56
2022-10-14T00:07:25.834Z,86.58
2022-10-14T00:10:08.040Z,86.76
2022-10-14T00:12:50.754Z,87.03
2022-10-14T00:15:32.749Z,87.31
2022-10-14T00:18:14.338Z,87.20
2022-10-14T00:21:01.317Z,87.30
2022-10-14T00:23:44.376Z,87.24
2022-10-14T00:26:29.857Z,87.09
2022-10-14T00:29:15.491Z,87.63
2022-10-14T00:31:57.129Z,87.75
2022-10-14T00:34:38.921Z,87.90
2022-10-14T00:37:20.925Z,87.76
2022-10-14T00:40:04.248Z,87.71
2022-10-14T00:42:45.941Z,87.74
2022-10-14T00:45:27.733Z,87.71
2022-10-14T00:48:10.243Z,87.79
2022-10-14T00:50:56.646Z,88.05
2022-10-14T00:53:42.433Z,88.14
2022-10-14T00:56:28.936Z,88.24
2022-10-14T00:59:10.934Z,88.47
2022-10-14T01:01:53.034Z,88.66
2022-10-14T01:04:39.538Z,88.58
2022-10-14T01:07:40.787Z,88.77
2022-10-14T01:10:41.729Z,88.95
2022-10-14T01:13:31.482Z,88.97
2022-10-14T01:16:36.958Z,88.87
2022-10-14T01:19:51.725Z,88.61
2022-10-14T01:22:41.101Z,88.66
2022-10-14T01:25:53.609Z,88.55
2022-10-14T01:28:52.021Z,88.42
2022-10-14T01:31:40.227Z,88.36
2022-10-14T01:34:32.576Z,88.38
2022-10-14T01:37:19.653Z,88.69
2022-10-14T01:40:08.608Z,88.55
2022-10-14T01:42:53.215Z,88.34
2022-10-14T01:45:38.081Z,88.47
2022-10-14T01:48:24.071Z,88.64
2022-10-14T01:51:13.443Z,88.70
2022-10-14T01:54:00.253Z,89.06
2022-10-14T01:56:45.192Z,89.21
2022-10-14T01:59:29.676Z,89.34
2022-10-14T02:02:13.403Z,89.64
2022-10-14T02:04:56.045Z,89.79
2022-10-14T02:07:42.945Z,89.65
2022-10-14T02:10:38.148Z,89.86
2022-10-14T02:14:03.565Z,89.95
2022-10-14T02:17:10.247Z,90.04
2022-10-14T02:20:13.437Z,90.56
2022-10-14T02:23:00.216Z,90.61
2022-10-14T02:25:44.883Z,90.85
2022-10-14T02:28:30.039Z,91.14
2022-10-14T02:31:15.552Z,91.20
2022-10-14T02:34:02.781Z,91.29
2022-10-14T02:36:46.083Z,91.29
2022-10-14T02:39:36.300Z,91.11
2022-10-14T02:42:19.212Z,91.24
2022-10-14T02:45:01.729Z,91.10
2022-10-14T02:47:43.421Z,91.17
2022-10-14T02:50:25.047Z,91.27
2022-10-14T02:53:06.802Z,91.38
2022-10-14T02:55:48.495Z,91.56
2022-10-14T02:58:30.184Z,91.66
2022-10-14T03:01:11.874Z,92.26
2022-10-14T03:03:53.873Z,92.33
2022-10-14T03:06:37.099Z,92.71
2022-10-14T03:09:19.918Z,92.76
2022-10-14T03:12:02.123Z,92.68
2022-10-14T03:14:44.220Z,92.46
2022-10-14T03:17:26.886Z,92.43
2022-10-14T03:20:10.035Z,92.31
2022-10-14T03:22:57.486Z,92.24
2022-10-14T03:25:39.380Z,92.00
2022-10-14T03:28:28.901Z,91.83
2022-10-14T03:31:17.201Z,91.71
2022-10-14T03:34:37.087Z,91.79
2022-10-14T03:37:21.852Z,91.97
2022-10-14T03:40:05.384Z,92.08
2022-10-14T03:42:48.408Z,92.23
2022-10-14T03:45:30.674Z,91.98
2022-10-14T03:48:12.610Z,91.55
2022-10-14T03:50:55.119Z,91.42
2022-10-14T03:53:37.628Z,91.46
2022-10-14T03:56:19.626Z,91.53
2022-10-14T03:59:02.034Z,91.40
2022-10-14T04:01:43.996Z,91.58
2022-10-14T04:04:37.704Z,91.86
2022-10-14T04:07:19.600Z,91.77
2022-10-14T04:10:07.230Z,91.93
2022-10-14T04:12:50.970Z,92.25
2022-10-14T04:15:45.357Z,92.40
2022-10-14T04:18:35.025Z,92.70
2022-10-14T04:21:17.247Z,92.75
2022-10-14T04:24:07.375Z,92.90
2022-10-14T04:26:57.317Z,92.92
2022-10-14T04:29:50.472Z,93.05
2022-10-14T04:32:38.587Z,93.21
2022-10-14T04:35:21.123Z,93.50
2022-10-14T04:38:04.663Z,93.92
2022-10-14T04:40:46.349Z,93.65
2022-10-14T04:43:28.348Z,93.75
2022-10-14T04:46:10.043Z,94.17
2022-10-14T04:48:51.933Z,94.26
2022-10-14T04:51:34.853Z,94.32
2022-10-14T04:54:35.128Z,94.41
2022-10-14T04:57:17.345Z,94.20
2022-10-14T05:00:02.265Z,94.36
2022-10-14T05:03:01.566Z,94.00
2022-10-14T05:05:47.647Z,93.76
2022-10-14T05:08:29.543Z,94.12
2022-10-14T05:11:14.407Z,94.58
2022-10-14T05:14:01.935Z,94.78
2022-10-14T05:16:44.652Z,95.06
2022-10-14T05:19:26.341Z,95.20
2022-10-14T05:22:08.238Z,95.19
2022-10-14T05:24:54.638Z,94.97
2022-10-14T05:27:36.640Z,94.96
2022-10-14T05:30:19.351Z,95.09
2022-10-14T05:33:03.807Z,94.84
2022-10-14T05:36:00.235Z,94.79
2022-10-14T05:38:45.110Z,94.61
2022-10-14T05:41:26.902Z,94.73
2022-10-14T05:44:11.255Z,95.01
2022-10-14T05:46:53.254Z,94.97
2022-10-14T05:49:34.948Z,95.06
2022-10-14T05:52:17.766Z,94.94
2022-10-14T05:54:59.760Z,95.36
2022-10-14T05:57:44.522Z,95.59
2022-10-14T06:00:28.553Z,95.75
2022-10-14T06:03:13.560Z,95.72
2022-10-14T06:05:56.354Z,95.87
2022-10-14T06:08:38.044Z,95.89
2022-10-14T06:27:42.007Z,94.22
2022-10-14T06:30:23.701Z,94.15
2022-10-14T06:33:05.390Z,94.33
2022-10-14T06:35:47.800Z,94.55
2022-10-14T06:38:29.420Z,94.76
2022-10-14T06:41:11.281Z,94.37
2022-10-14T06:43:53.488Z,94.38
2022-10-14T06:46:35.095Z,94.34
2022-10-14T06:49:16.762Z,94.70
2022-10-14T06:51:58.455Z,95.04
2022-10-14T06:54:42.574Z,95.07
2022-10-14T06:57:26.550Z,95.08
2022-10-14T07:00:09.166Z,95.35
2022-10-14T07:02:52.080Z,95.69
2022-10-14T07:05:34.076Z,96.04
2022-10-14T07:12:26.008Z,97.28
2022-10-14T07:15:08.619Z,97.25
2022-10-14T07:17:50.338Z,97.80
2022-10-14T07:20:34.052Z,98.00
2022-10-14T07:23:15.767Z,97.29
2022-10-14T07:25:58.893Z,96.55
2022-10-14T07:28:41.564Z,96.33
2022-10-14T07:31:23.300Z,96.48
2022-10-14T07:34:05.296Z,95.72
2022-10-14T07:36:47.090Z,95.06
2022-10-14T07:39:29.323Z,94.41
2022-10-14T07:42:11.148Z,93.97
2022-10-14T07:44:55.279Z,93.73
2022-10-14T07:47:37.163Z,93.76
2022-10-14T07:50:19.847Z,94.35
2022-10-14T07:53:01.781Z,93.65
2022-10-14T07:55:52.145Z,92.86
2022-10-14T07:58:33.826Z,91.65
2022-10-14T08:01:16.792Z,90.74
2022-10-14T08:03:58.744Z,89.72
2022-10-14T08:06:41.050Z,88.90
2022-10-14T08:09:23.333Z,88.43
2022-10-14T08:12:05.355Z,87.94
2022-10-14T08:14:47.249Z,88.10
2022-10-14T08:17:29.042Z,88.75
2022-10-14T08:20:11.405Z,87.92
2022-10-14T08:22:53.346Z,86.82
2022-10-14T08:25:36.788Z,86.65
2022-10-14T08:28:18.558Z,85.26
2022-10-14T08:31:00.366Z,84.21
2022-10-14T08:33:42.259Z,84.55
2022-10-14T08:36:24.462Z,84.39
2022-10-14T08:39:07.425Z,83.15
2022-10-14T08:42:21.082Z,82.63
2022-10-14T08:45:09.202Z,81.65
2022-10-14T08:47:55.083Z,81.40
2022-10-14T08:50:44.459Z,81.30
2022-10-14T08:53:48.746Z,80.66
2022-10-14T08:56:30.437Z,77.56
2022-10-14T08:59:19.708Z,76.84
2022-10-14T09:02:12.028Z,76.53
2022-10-14T09:04:53.944Z,77.10
2022-10-14T09:07:37.271Z,76.07
2022-10-14T09:10:30.329Z,74.83
2022-10-14T09:13:26.360Z,74.92
2022-10-14T09:16:17.483Z,75.28
2022-10-14T09:19:06.819Z,75.32
2022-10-14T09:21:53.658Z,75.61
2022-10-14T09:24:36.261Z,76.04
2022-10-14T09:27:23.632Z,75.80
2022-10-14T09:30:10.600Z,76.06
2022-10-14T09:32:55.773Z,76.03
2022-10-14T09:35:42.143Z,76.22
2022-10-14T09:38:24.684Z,76.73
2022-10-14T09:41:15.489Z,76.23
2022-10-14T09:44:23.702Z,75.85
2022-10-14T09:47:09.449Z,75.42
2022-10-14T09:49:54.456Z,75.64
2022-10-14T09:52:38.297Z,75.03
2022-10-14T09:55:24.525Z,74.72
2022-10-14T09:58:14.372Z,75.16
2022-10-14T10:01:00.779Z,74.65
2022-10-14T10:03:42.788Z,74.12
2022-10-14T10:06:27.023Z,74.20
2022-10-14T10:09:18.447Z,72.61
2022-10-14T10:12:00.446Z,70.98
2022-10-14T10:14:42.069Z,70.52
2022-10-14T10:17:24.177Z,69.57
2022-10-14T10:20:28.793Z,69.46
2022-10-14T10:23:37.230Z,67.58
2022-10-14T10:26:26.255Z,66.75
2022-10-14T10:29:34.660Z,66.76
2022-10-14T10:32:30.925Z,67.36
2022-10-14T10:35:18.632Z,67.97
2022-10-14T10:38:10.173Z,67.19
2022-10-14T10:41:23.789Z,66.25
2022-10-14T10:59:37.192Z,65.20
2022-10-14T11:02:45.010Z,64.75
2022-10-14T11:05:39.000Z,65.87
2022-10-14T11:09:11.985Z,66.20
2022-10-14T11:12:23.357Z,66.39
2022-10-14T11:18:45.646Z,67.13
2022-10-14T11:21:43.201Z,67.80
2022-10-14T11:24:33.897Z,67.74
2022-10-14T11:28:00.757Z,68.22
2022-10-14T11:30:59.023Z,68.48
2022-10-14T11:34:17.165Z,68.50
2022-10-14T11:37:23.941Z,68.61
2022-10-14T11:40:37.066Z,68.39
2022-10-14T11:43:48.256Z,68.36
2022-10-14T11:46:35.989Z,68.27
2022-10-14T11:49:37.533Z,68.77
2022-10-14T11:52:32.020Z,68.66
2022-10-14T11:55:24.238Z,68.85
2022-10-14T11:58:16.199Z,69.08
2022-10-14T12:01:05.791Z,68.60
2022-10-14T12:04:12.555Z,68.44
2022-10-14T12:07:06.053Z,68.32
2022-10-14T12:09:57.425Z,67.99
2022-10-14T12:12:42.720Z,68.16
2022-10-14T12:15:27.458Z,68.37
2022-10-14T12:18:12.257Z,68.05
2022-10-14T12:21:12.664Z,68.40
2022-10-14T12:24:03.241Z,68.71
2022-10-14T12:27:00.737Z,69.06
2022-10-14T12:29:47.936Z,69.42
2022-10-14T12:32:31.298Z,69.47
2022-10-14T12:35:45.541Z,69.46
2022-10-14T12:38:29.440Z,69.36
2022-10-14T12:41:39.341Z,69.71
2022-10-14T12:56:39.148Z,67.80
2022-10-14T12:59:27.086Z,67.34
2022-10-14T13:02:32.636Z,67.46
2022-10-14T13:05:37.584Z,68.35
2022-10-14T13:08:25.882Z,68.37
2022-10-14T13:11:13.424Z,68.21
2022-10-14T13:14:00.643Z,68.60
2022-10-14T13:16:45.432Z,68.84
2022-10-14T13:19:33.470Z,68.90
2022-10-14T13:22:31.313Z,69.29
2022-10-14T13:25:20.027Z,69.39
2022-10-14T13:28:04.553Z,69.65
2022-10-14T13:31:03.771Z,69.76
2022-10-14T13:33:55.646Z,70.11
2022-10-14T13:36:57.547Z,70.49
2022-10-14T13:39:39.448Z,70.75
2022-10-14T13:42:26.831Z,70.62
2022-10-14T13:45:15.843Z,70.68
2022-10-14T13:47:58.853Z,70.79
2022-10-14T13:50:42.284Z,71.03
2022-10-14T13:53:24.385Z,70.40
2022-10-14T13:56:32.094Z,70.35
2022-10-14T13:59:43.159Z,70.54
2022-10-14T14:02:27.604Z,70.80
2022-10-14T14:05:16.368Z,71.06
2022-10-14T14:08:36.826Z,70.90
2022-10-14T14:11:16.232Z,71.15
2022-10-14T14:14:05.174Z,71.38
2022-10-14T14:16:53.753Z,71.37
2022-10-14T14:19:37.571Z,71.67
2022-10-14T14:22:31.253Z,71.71
2022-10-14T14:25:50.597Z,71.78
2022-10-14T14:28:31.651Z,71.98
2022-10-14T14:31:19.759Z,72.19
2022-10-14T14:34:01.729Z,72.25
2022-10-14T14:36:51.174Z,72.07
2022-10-14T14:39:33.815Z,72.26
2022-10-14T14:42:15.609Z,72.46
2022-10-14T14:45:01.569Z,72.38
2022-10-14T14:47:44.275Z,72.62
2022-10-14T14:50:34.235Z,72.79
2022-10-14T14:53:27.460Z,72.93
2022-10-14T14:56:16.024Z,73.29
2022-10-14T14:59:19.718Z,73.56
2022-10-14T15:02:03.360Z,73.57
2022-10-14T15:04:45.457Z,73.61
2022-10-14T15:07:27.350Z,73.78
2022-10-14T15:10:22.535Z,73.91
2022-10-14T15:13:04.967Z,74.01
2022-10-14T15:15:53.695Z,74.06
2022-10-14T15:18:37.845Z,74.07
2022-10-14T15:21:20.178Z,74.25
2022-10-14T15:24:03.534Z,74.25
2022-10-14T15:26:46.538Z,74.27
2022-10-14T15:29:28.325Z,74.51
2022-10-14T15:32:15.460Z,74.55
2022-10-14T15:35:01.229Z,74.79
2022-10-14T15:37:43.777Z,74.98
2022-10-14T15:40:29.066Z,75.12
2022-10-14T15:43:17.733Z,75.35
2022-10-14T15:46:19.785Z,75.49
2022-10-14T15:49:03.370Z,75.73
2022-10-14T15:51:45.072Z,75.80
2022-10-14T15:54:28.666Z,76.07
2022-10-14T15:57:13.960Z,76.35
2022-10-14T16:00:00.273Z,76.43
2022-10-14T16:02:43.925Z,76.44
2022-10-14T16:05:29.256Z,76.63
2022-10-14T16:08:14.254Z,76.76
2022-10-14T16:10:57.688Z,76.94
2022-10-14T16:13:39.377Z,77.12
2022-10-14T16:16:31.003Z,77.36
2022-10-14T16:19:12.960Z,77.54
2022-10-14T16:21:54.792Z,77.68
2022-10-14T16:24:36.690Z,77.80
2022-10-14T16:27:19.792Z,77.91
2022-10-14T16:30:01.928Z,78.40
2022-10-14T16:32:45.347Z,78.54
2022-10-14T16:35:27.243Z,78.79
2022-10-14T16:38:12.003Z,79.01
2022-10-14T16:40:59.224Z,79.09
2022-10-14T16:43:41.016Z,79.17
2022-10-14T16:46:43.221Z,79.38
2022-10-14T16:49:24.982Z,79.63
2022-10-14T16:52:08.311Z,79.90
2022-10-14T16:54:49.951Z,80.22
2022-10-14T16:57:32.408Z,80.38
2022-10-14T17:00:16.217Z,80.60
2022-10-14T17:02:57.943Z,80.71
2022-10-14T17:05:40.009Z,80.93
2022-10-14T17:08:22.244Z,81.09
2022-10-14T17:11:11.103Z,81.15
2022-10-14T17:13:54.471Z,81.52
2022-10-14T17:16:36.225Z,81.52
2022-10-14T17:19:18.942Z,81.54
2022-10-14T17:22:02.270Z,81.66
2022-10-14T17:24:43.961Z,81.88
2022-10-14T17:27:26.087Z,82.04
2022-10-14T17:30:08.573Z,82.20
2022-10-14T17:32:50.366Z,82.26
2022-10-14T17:35:33.795Z,82.47
2022-10-14T17:38:15.487Z,82.57
2022-10-14T17:41:08.852Z,82.47
2022-10-14T17:43:51.910Z,82.62
2022-10-14T17:46:34.283Z,82.50
2022-10-14T17:49:16.281Z,82.58
2022-10-14T17:52:04.838Z,82.87
2022-10-14T17:54:46.629Z,83.09
2022-10-14T17:57:28.418Z,83.14
2022-10-14T18:00:11.078Z,83.20
2022-10-14T18:02:55.999Z,83.11
2022-10-14T18:05:39.636Z,83.21
2022-10-14T18:08:21.330Z,83.14
2022-10-14T18:11:09.954Z,83.29
2022-10-14T18:13:59.354Z,83.18
2022-10-14T18:16:43.772Z,83.38
2022-10-14T18:19:26.122Z,83.46
2022-10-14T18:22:08.315Z,83.93
2022-10-14T18:24:49.958Z,84.48
2022-10-14T18:27:31.596Z,84.62
2022-10-14T18:30:13.695Z,84.91
2022-10-14T18:32:56.104Z,85.00
2022-10-14T18:35:37.898Z,85.43
2022-10-14T18:38:19.587Z,85.65
2022-10-14T18:41:03.926Z,86.00
2022-10-14T18:43:46.349Z,86.22
2022-10-14T18:46:30.238Z,86.29
2022-10-14T18:49:12.295Z,86.31
2022-10-14T18:51:55.341Z,86.30
2022-10-14T18:54:37.208Z,86.36
2022-10-14T18:57:18.900Z,86.32
2022-10-14T19:00:00.692Z,86.57
2022-10-14T19:02:42.382Z,86.64
2022-10-14T19:05:24.075Z,86.71
2022-10-14T19:08:06.120Z,86.77
2022-10-14T19:10:47.867Z,86.72
2022-10-14T19:13:29.761Z,86.62
2022-10-14T19:16:18.298Z,86.59
2022-10-14T19:19:04.426Z,86.63
2022-10-14T19:21:49.067Z,86.34
2022-10-14T19:24:30.860Z,86.47
2022-10-14T19:27:12.554Z,86.38
2022-10-14T19:29:54.344Z,86.58
2022-10-14T19:32:36.035Z,86.53
2022-10-14T19:38:05.664Z,86.49
2022-10-14T19:40:47.355Z,86.82
2022-10-14T19:43:30.312Z,86.91
2022-10-14T19:46:13.851Z,86.80
2022-10-14T19:48:58.668Z,86.84
2022-10-14T19:51:41.187Z,87.01
2022-10-14T19:54:22.879Z,86.87
2022-10-14T19:57:04.568Z,87.19
2022-10-14T19:59:46.360Z,87.21
2022-10-14T20:02:28.082Z,87.30
2022-10-14T20:05:09.745Z,87.28
2022-10-14T20:07:51.534Z,87.11
2022-10-14T20:10:33.342Z,87.13
2022-10-14T20:13:15.391Z,86.81
2022-10-14T20:15:59.319Z,87.04
2022-10-14T20:18:41.681Z,86.97
2022-10-14T20:21:23.981Z,87.40
2022-10-14T20:24:06.083Z,87.18
2022-10-14T20:26:47.850Z,87.20
2022-10-14T20:29:29.568Z,87.25
2022-10-14T20:32:11.462Z,87.25
2022-10-14T20:34:53.154Z,87.37
2022-10-14T20:37:34.899Z,87.85
2022-10-14T20:40:17.049Z,87.84
2022-10-14T20:42:58.739Z,87.93
2022-10-14T20:45:40.532Z,87.87
2022-10-14T20:48:22.222Z,87.99
2022-10-14T20:51:09.166Z,87.91
2022-10-14T20:53:58.553Z,88.08
2022-10-14T20:56:43.783Z,88.15
2022-10-14T20:59:25.472Z,88.68
2022-10-14T21:02:16.491Z,88.93
2022-10-14T21:04:58.172Z,89.25
2022-10-14T21:07:39.864Z,89.24
2022-10-14T21:10:21.656Z,89.54
2022-10-14T21:13:03.348Z,89.43
2022-10-14T21:15:45.143Z,89.42
2022-10-14T21:18:27.958Z,89.55
2022-10-14T21:21:11.627Z,89.82
2022-10-14T21:23:58.248Z,90.02
2022-10-14T21:26:41.046Z,90.26
2022-10-14T21:29:23.325Z,90.31
2022-10-14T21:32:05.574Z,90.30
2022-10-14T21:34:47.319Z,90.39
2022-10-14T21:37:29.010Z,90.45
2022-10-14T21:40:11.421Z,90.82
2022-10-14T21:42:53.212Z,90.62
2022-10-14T21:45:35.441Z,90.70
2022-10-14T21:48:20.355Z,90.59
2022-10-14T21:51:06.104Z,90.68
2022-10-14T21:53:48.577Z,90.73
2022-10-14T21:56:31.013Z,90.92
2022-10-14T21:59:13.951Z,91.00
2022-10-14T22:01:59.692Z,91.03
2022-10-14T22:04:41.586Z,91.59
2022-10-14T22:07:24.159Z,91.79
2022-10-14T22:10:27.329Z,91.91
2022-10-14T22:13:11.241Z,92.55
2022-10-14T22:15:54.872Z,92.62
2022-10-14T22:18:36.664Z,92.77
2022-10-14T22:21:21.609Z,92.88
2022-10-14T22:24:04.532Z,93.04
2022-10-14T22:26:46.346Z,93.49
2022-10-14T22:29:28.003Z,93.46
2022-10-14T22:32:09.728Z,93.92
2022-10-14T22:34:53.857Z,93.83
2022-10-14T22:37:36.546Z,93.55
2022-10-14T22:40:18.696Z,93.53
2022-10-14T22:43:00.485Z,93.72
2022-10-14T22:45:42.207Z,93.69
2022-10-14T22:48:29.278Z,93.52
2022-10-14T22:51:14.085Z,93.45
2022-10-14T22:53:56.362Z,93.57
2022-10-14T22:56:39.280Z,93.66
2022-10-14T22:59:21.079Z,93.37
2022-10-14T23:02:03.074Z,93.53
2022-10-14T23:04:45.384Z,93.27
2022-10-14T23:07:29.424Z,93.03
2022-10-14T23:10:11.116Z,92.98
2022-10-14T23:12:54.035Z,93.16
2022-10-14T23:15:36.878Z,93.15
2022-10-14T23:18:18.645Z,93.29
2022-10-14T23:21:08.040Z,93.40
2022-10-14T23:23:51.721Z,93.80
2022-10-14T23:26:35.808Z,94.16
2022-10-14T23:29:17.595Z,94.38
2022-10-14T23:31:59.390Z,94.19
2022-10-14T23:34:41.183Z,93.82
2022-10-14T23:37:23.615Z,93.52
2022-10-14T23:40:06.713Z,94.12
2022-10-14T23:42:48.507Z,95.20
2022-10-14T23:45:30.403Z,95.44
2022-10-14T23:48:12.093Z,95.57
2022-10-14T23:50:54.471Z,95.49
2022-10-14T23:53:36.192Z,96.07
2022-10-14T23:56:18.498Z,95.79
2022-10-14T23:59:00.189Z,95.98
